TimeEDT,TemperatureF,Dew PointF,Humidity,Sea Level PressureIn,VisibilityMPH,Wind Direction,Wind SpeedMPH,Gust SpeedMPH,PrecipitationIn,Events,Conditions,WindDirDegrees,DateUTC
12:53 AM,41.0,35.1,79,29.89,6.0,NE,5.8,-,N/A,,Haze,40,2013-03-17 04:53:00
1:53 AM,39.0,35.1,86,29.91,6.0,Calm,Calm,-,N/A,,Clear,0,2013-03-17 05:53:00
2:53 AM,37.9,34.0,86,29.93,5.0,ENE,4.6,-,N/A,,Clear,60,2013-03-17 06:53:00
3:08 AM,37.4,35.6,93,29.93,5.0,NE,4.6,-,N/A,,Mostly Cloudy,50,2013-03-17 07:08:00
3:53 AM,37.9,35.1,89,29.94,5.0,ESE,3.5,-,N/A,,Overcast,110,2013-03-17 07:53:00
4:27 AM,37.4,35.6,93,29.96,6.0,East,3.5,-,N/A,,Overcast,80,2013-03-17 08:27:00
4:53 AM,37.9,34.0,86,29.96,5.0,ENE,3.5,-,N/A,,Overcast,70,2013-03-17 08:53:00
5:22 AM,37.4,33.8,87,29.97,5.0,ENE,4.6,-,N/A,,Overcast,70,2013-03-17 09:22:00
5:53 AM,37.0,34.0,89,29.99,5.0,ENE,6.9,-,N/A,,Overcast,70,2013-03-17 09:53:00
6:53 AM,36.0,34.0,93,30.02,3.0,NE,5.8,-,N/A,,Overcast,40,2013-03-17 10:53:00
7:53 AM,37.0,33.1,86,30.06,5.0,ENE,4.6,-,N/A,,Overcast,60,2013-03-17 11:53:00
8:08 AM,37.4,33.8,87,30.06,4.0,NE,4.6,-,N/A,,Overcast,50,2013-03-17 12:08:00
8:16 AM,37.4,33.8,87,30.07,5.0,NE,4.6,-,N/A,,Overcast,50,2013-03-17 12:16:00
8:53 AM,37.0,33.1,86,30.09,5.0,ENE,4.6,-,N/A,,Overcast,70,2013-03-17 12:53:00
9:00 AM,37.4,33.8,87,30.10,5.0,ENE,3.5,-,N/A,,Overcast,60,2013-03-17 13:00:00
9:37 AM,37.4,32.0,81,30.12,5.0,ENE,3.5,-,N/A,,Haze,60,2013-03-17 13:37:00
9:53 AM,37.0,33.1,86,30.13,5.0,NNE,5.8,-,N/A,,Overcast,30,2013-03-17 13:53:00
10:53 AM,37.0,32.0,82,30.14,9.0,ENE,5.8,-,0.00,,Overcast,60,2013-03-17 14:53:00
11:53 AM,37.9,32.0,79,30.15,8.0,ENE,5.8,-,0.00,Rain,Light Rain,70,2013-03-17 15:53:00
12:53 PM,37.0,34.0,89,30.16,5.0,ENE,4.6,-,0.03,Rain,Light Rain,60,2013-03-17 16:53:00
1:33 PM,37.4,33.8,87,30.15,5.0,ENE,4.6,-,0.00,Rain,Light Rain,60,2013-03-17 17:33:00
1:49 PM,37.4,33.8,87,30.14,4.0,ENE,3.5,-,0.01,Rain,Light Rain,60,2013-03-17 17:49:00
1:53 PM,37.0,34.0,89,30.14,4.0,East,3.5,-,0.01,Rain,Light Rain,90,2013-03-17 17:53:00
2:43 PM,37.4,33.8,87,30.13,7.0,ENE,3.5,-,0.01,,Overcast,60,2013-03-17 18:43:00
2:53 PM,37.9,34.0,86,30.14,7.0,East,4.6,-,0.01,,Overcast,80,2013-03-17 18:53:00
3:09 PM,37.4,33.8,87,30.13,8.0,ENE,3.5,-,N/A,,Overcast,60,2013-03-17 19:09:00
3:15 PM,37.4,33.8,87,30.13,8.0,ENE,3.5,-,N/A,,Overcast,60,2013-03-17 19:15:00
3:53 PM,37.9,34.0,86,30.15,8.0,NNE,6.9,-,0.00,,Overcast,30,2013-03-17 19:53:00
4:53 PM,37.9,34.0,86,30.15,4.0,ENE,5.8,-,0.00,Rain,Light Rain,60,2013-03-17 20:53:00
5:53 PM,35.1,33.1,92,30.18,4.0,NE,8.1,-,0.00,Rain,Light Rain,40,2013-03-17 21:53:00
6:53 PM,34.0,30.9,89,30.21,4.0,ENE,8.1,-,0.00,Snow,Light Snow,60,2013-03-17 22:53:00
7:02 PM,33.8,30.2,87,30.20,2.5,East,6.9,-,0.00,Snow,Light Snow,80,2013-03-17 23:02:00
7:53 PM,33.1,30.9,92,30.22,2.5,ENE,6.9,-,0.01,Snow,Light Snow,60,2013-03-17 23:53:00
8:53 PM,33.1,30.9,92,30.22,2.5,NE,8.1,-,0.00,Snow,Light Snow,40,2013-03-18 00:53:00
9:53 PM,32.0,30.9,96,30.24,2.5,NE,5.8,-,0.00,Snow,Light Snow,50,2013-03-18 01:53:00
10:20 PM,32.0,30.2,93,30.23,2.5,NE,4.6,-,0.00,Rain,Light Freezing Rain,50,2013-03-18 02:20:00
10:44 PM,32.0,30.2,93,30.25,5.0,ENE,3.5,-,0.00,Rain,Light Freezing Rain,70,2013-03-18 02:44:00
10:53 PM,32.0,30.9,96,30.26,5.0,NE,5.8,-,0.00,Rain,Light Freezing Rain,40,2013-03-18 02:53:00
11:06 PM,32.0,30.2,93,30.25,5.0,NE,5.8,-,0.00,,Overcast,50,2013-03-18 03:06:00
11:16 PM,32.0,30.2,93,30.25,5.0,NE,4.6,-,0.00,Snow,Light Snow,40,2013-03-18 03:16:00
11:35 PM,32.0,30.2,93,30.26,2.5,NE,4.6,-,0.00,Snow,Light Snow,40,2013-03-18 03:35:00
11:53 PM,32.0,30.0,92,30.27,1.8,NE,4.6,-,0.00,Snow,Light Snow,50,2013-03-18 03:53:00